createdAt,value
2018-07-23T00:01:34.410Z,100192.48
2018-07-23T00:04:03.338Z,100188.52
2018-07-23T00:06:31.889Z,100191.53
2018-07-23T00:09:00.033Z,100193.75
2018-07-23T00:11:28.530Z,100204.41
2018-07-23T00:13:56.827Z,100199.14
2018-07-23T00:16:25.650Z,100195.66
2018-07-23T00:18:53.819Z,100195.97
2018-07-23T00:21:23.688Z,100193.61
2018-07-23T00:23:51.847Z,100189.25
2018-07-23T00:26:20.023Z,100184.47
2018-07-23T00:28:48.135Z,100187.88
2018-07-23T00:31:16.243Z,100189.92
2018-07-23T00:33:44.343Z,100187.02
2018-07-23T00:36:12.650Z,100181.06
2018-07-23T00:38:40.913Z,100186.31
2018-07-23T00:41:09.243Z,100182.41
2018-07-23T00:43:37.402Z,100186.00
2018-07-23T00:46:05.777Z,100182.62
2018-07-23T00:48:33.893Z,100187.19
2018-07-23T00:51:02.600Z,100188.34
2018-07-23T00:53:30.793Z,100188.36
2018-07-23T00:55:59.243Z,100178.91
2018-07-23T00:58:27.377Z,100183.28
2018-07-23T01:00:55.530Z,100180.97
2018-07-23T01:03:23.656Z,100178.14
2018-07-23T01:05:51.799Z,100177.52
2018-07-23T01:08:20.015Z,100183.06
2018-07-23T01:10:48.276Z,100181.62
2018-07-23T01:13:17.147Z,100181.66
2018-07-23T01:15:45.355Z,100173.06
2018-07-23T01:18:13.482Z,100174.16
2018-07-23T01:20:42.210Z,100172.55
2018-07-23T01:23:10.367Z,100172.55
2018-07-23T01:25:39.047Z,100171.27
2018-07-23T01:28:07.343Z,100178.07
2018-07-23T01:30:35.807Z,100177.56
2018-07-23T01:33:04.250Z,100176.32
2018-07-23T01:35:33.166Z,100172.22
2018-07-23T01:38:01.844Z,100168.85
2018-07-23T01:40:29.953Z,100161.38
2018-07-23T01:42:58.178Z,100172.89
2018-07-23T01:45:26.324Z,100165.94
2018-07-23T01:47:54.463Z,100174.92
2018-07-23T01:50:22.558Z,100172.93
2018-07-23T01:52:50.675Z,100177.36
2018-07-23T01:55:18.942Z,100177.34
2018-07-23T01:57:47.160Z,100173.83
2018-07-23T02:00:15.301Z,100170.30
2018-07-23T02:02:43.435Z,100175.22
2018-07-23T02:05:11.536Z,100178.47
2018-07-23T02:07:39.759Z,100182.23
2018-07-23T02:10:07.875Z,100190.48
2018-07-23T02:12:36.001Z,100185.31
2018-07-23T02:15:04.364Z,100182.81
2018-07-23T02:17:32.498Z,100186.55
2018-07-23T02:20:00.677Z,100190.83
2018-07-23T02:22:28.842Z,100191.97
2018-07-23T02:24:57.134Z,100184.33
2018-07-23T02:27:25.379Z,100186.49
2018-07-23T02:29:53.505Z,100185.45
2018-07-23T02:32:21.595Z,100187.35
2018-07-23T02:34:49.851Z,100190.70
2018-07-23T02:37:18.149Z,100188.25
2018-07-23T02:39:46.313Z,100188.09
2018-07-23T02:42:14.528Z,100192.19
2018-07-23T02:44:42.659Z,100185.20
2018-07-23T02:47:11.515Z,100190.23
2018-07-23T02:49:40.097Z,100191.07
2018-07-23T02:52:08.232Z,100192.65
2018-07-23T02:54:36.348Z,100195.13
2018-07-23T02:57:04.476Z,100191.65
2018-07-23T02:59:32.617Z,100195.15
2018-07-23T03:02:00.711Z,100198.92
2018-07-23T03:04:28.878Z,100196.95
2018-07-23T03:06:57.063Z,100200.16
2018-07-23T03:09:25.181Z,100202.89
2018-07-23T03:11:53.349Z,100198.23
2018-07-23T03:14:21.871Z,100199.52
2018-07-23T03:16:50.023Z,100201.54
2018-07-23T03:19:18.239Z,100199.36
2018-07-23T03:21:46.688Z,100201.47
2018-07-23T03:24:14.811Z,100200.11
2018-07-23T03:26:45.740Z,100199.20
2018-07-23T03:29:13.956Z,100201.01
2018-07-23T03:31:42.064Z,100203.48
2018-07-23T03:34:10.183Z,100204.75
2018-07-23T03:36:38.307Z,100211.91
2018-07-23T03:39:08.135Z,100213.78
2018-07-23T03:41:36.658Z,100216.39
2018-07-23T03:44:04.748Z,100212.50
2018-07-23T03:46:32.895Z,100216.25
2018-07-23T03:49:00.990Z,100224.42
2018-07-23T03:51:29.112Z,100224.91
2018-07-23T03:53:57.281Z,100230.73
2018-07-23T03:56:25.559Z,100233.55
2018-07-23T03:58:53.778Z,100236.18
2018-07-23T04:01:22.184Z,100237.12
2018-07-23T04:03:50.642Z,100242.93
2018-07-23T04:06:18.920Z,100237.66
2018-07-23T04:08:49.998Z,100247.30
2018-07-23T04:11:18.705Z,100240.72
2018-07-23T04:13:46.883Z,100245.24
2018-07-23T04:16:15.569Z,100243.64
2018-07-23T04:18:43.719Z,100247.73
2018-07-23T04:21:11.906Z,100246.14
2018-07-23T04:23:40.116Z,100246.22
2018-07-23T04:26:09.365Z,100250.87
2018-07-23T04:28:37.514Z,100252.52
2018-07-23T04:31:05.975Z,100262.22
2018-07-23T04:33:34.165Z,100256.59
2018-07-23T04:36:02.396Z,100255.26
2018-07-23T04:38:30.561Z,100253.75
2018-07-23T04:40:58.738Z,100261.12
2018-07-23T04:43:26.863Z,100257.77
2018-07-23T04:45:54.987Z,100266.08
2018-07-23T04:48:23.140Z,100267.17
2018-07-23T04:50:51.345Z,100268.61
2018-07-23T04:53:19.536Z,100267.37
2018-07-23T04:55:47.626Z,100273.39
2018-07-23T04:58:15.822Z,100277.62
2018-07-23T05:00:43.923Z,100276.61
2018-07-23T05:03:12.047Z,100275.03
2018-07-23T05:05:40.167Z,100277.16
2018-07-23T05:08:08.343Z,100276.36
2018-07-23T05:13:12.039Z,100275.31
2018-07-23T05:15:40.204Z,100282.64
2018-07-23T05:18:08.354Z,100277.12
2018-07-23T05:20:36.546Z,100281.45
2018-07-23T05:23:04.789Z,100283.84
2018-07-23T05:25:32.965Z,100285.69
2018-07-23T05:28:06.948Z,100285.75
2018-07-23T05:30:35.102Z,100281.08
2018-07-23T05:33:03.277Z,100286.81
2018-07-23T05:35:31.558Z,100291.68
2018-07-23T05:37:59.831Z,100282.64
2018-07-23T05:40:27.992Z,100290.98
2018-07-23T05:42:56.163Z,100291.59
2018-07-23T05:45:24.326Z,100291.63
2018-07-23T05:47:52.688Z,100289.53
2018-07-23T05:50:20.855Z,100293.41
2018-07-23T05:52:48.962Z,100290.88
2018-07-23T05:55:17.259Z,100295.59
2018-07-23T05:57:45.395Z,100297.09
2018-07-23T06:00:13.553Z,100289.28
2018-07-23T06:02:42.442Z,100295.19
2018-07-23T06:05:10.605Z,100299.56
2018-07-23T06:07:38.845Z,100297.31
2018-07-23T06:10:07.033Z,100295.77
2018-07-23T06:12:44.034Z,100301.37
2018-07-23T06:15:12.246Z,100295.89
2018-07-23T06:17:40.606Z,100301.56
2018-07-23T06:20:09.508Z,100302.73
2018-07-23T06:22:37.803Z,100307.25
2018-07-23T06:25:06.738Z,100303.02
2018-07-23T06:27:34.923Z,100304.08
2018-07-23T06:30:03.267Z,100305.00
2018-07-23T06:32:31.557Z,100306.88
2018-07-23T06:34:59.680Z,100308.56
2018-07-23T06:37:27.960Z,100311.55
2018-07-23T06:39:56.152Z,100312.50
2018-07-23T06:42:24.585Z,100315.55
2018-07-23T06:44:52.714Z,100316.73
2018-07-23T06:47:20.846Z,100321.12
2018-07-23T06:49:48.989Z,100323.02
2018-07-23T06:52:17.934Z,100329.70
2018-07-23T06:54:46.091Z,100327.45
2018-07-23T06:57:14.271Z,100325.03
2018-07-23T06:59:42.612Z,100326.75
2018-07-23T07:02:11.117Z,100329.13
2018-07-23T07:04:39.440Z,100333.20
2018-07-23T07:07:07.800Z,100335.41
2018-07-23T07:09:36.247Z,100339.91
2018-07-23T07:12:04.424Z,100346.52
2018-07-23T07:14:32.660Z,100346.61
2018-07-23T07:17:00.939Z,100351.20
2018-07-23T07:19:29.094Z,100340.53
2018-07-23T07:21:57.266Z,100340.52
2018-07-23T07:24:25.572Z,100349.17
2018-07-23T07:26:55.252Z,100347.91
2018-07-23T07:29:23.388Z,100342.28
2018-07-23T07:31:51.560Z,100340.48
2018-07-23T07:34:19.738Z,100347.45
2018-07-23T07:36:47.924Z,100336.67
2018-07-23T07:39:16.086Z,100339.38
2018-07-23T07:41:44.230Z,100341.86
2018-07-23T07:44:12.760Z,100342.33
2018-07-23T07:46:41.259Z,100344.20
2018-07-23T07:49:10.164Z,100343.31
2018-07-23T07:51:38.361Z,100345.03
2018-07-23T07:54:06.536Z,100341.72
2018-07-23T07:56:34.719Z,100339.59
2018-07-23T07:59:02.931Z,100340.45
2018-07-23T08:01:31.331Z,100343.45
2018-07-23T08:04:01.589Z,100338.70
2018-07-23T08:06:30.044Z,100340.00
2018-07-23T08:08:58.223Z,100334.84
2018-07-23T08:11:26.419Z,100334.84
2018-07-23T08:13:54.537Z,100333.14
2018-07-23T08:16:22.805Z,100333.53
2018-07-23T08:18:51.036Z,100330.47
2018-07-23T08:21:19.204Z,100327.41
2018-07-23T08:23:47.488Z,100332.58
2018-07-23T08:26:15.712Z,100337.48
2018-07-23T08:28:44.343Z,100334.86
2018-07-23T08:31:12.838Z,100328.80
2018-07-23T08:33:41.159Z,100326.19
2018-07-23T08:36:09.295Z,100325.28
2018-07-23T08:38:37.456Z,100328.71
2018-07-23T08:41:05.613Z,100326.08
2018-07-23T08:43:33.736Z,100324.30
2018-07-23T08:46:01.984Z,100332.05
2018-07-23T08:48:30.180Z,100329.41
2018-07-23T08:50:58.351Z,100328.20
2018-07-23T08:53:26.627Z,100330.34
2018-07-23T08:55:54.867Z,100332.00
2018-07-23T08:58:22.998Z,100334.11
2018-07-23T09:00:51.199Z,100333.25
2018-07-23T09:03:19.979Z,100330.61
2018-07-23T09:05:48.161Z,100333.95
2018-07-23T09:08:16.294Z,100333.89
2018-07-23T09:10:44.448Z,100324.74
2018-07-23T09:13:13.038Z,100326.94
2018-07-23T09:15:41.182Z,100329.89
2018-07-23T09:18:09.379Z,100324.66
2018-07-23T09:20:37.537Z,100324.14
2018-07-23T09:23:05.987Z,100322.83
2018-07-23T09:25:39.579Z,100325.80
2018-07-23T09:28:07.834Z,100327.10
2018-07-23T09:30:41.357Z,100320.55
2018-07-23T09:33:09.488Z,100324.03
2018-07-23T09:35:37.625Z,100315.25
2018-07-23T09:38:05.979Z,100312.55
2018-07-23T09:40:34.154Z,100315.20
2018-07-23T09:43:02.722Z,100310.41
2018-07-23T09:45:31.095Z,100308.58
2018-07-23T09:47:59.657Z,100315.06
2018-07-23T09:50:27.841Z,100314.59
2018-07-23T09:52:56.008Z,100313.20
2018-07-23T09:55:24.123Z,100313.56
2018-07-23T09:57:52.250Z,100316.57
2018-07-23T10:00:25.656Z,100304.34
2018-07-23T10:02:54.863Z,100305.08
2018-07-23T10:05:23.133Z,100298.55
2018-07-23T10:07:51.619Z,100303.67
2018-07-23T10:10:20.773Z,100298.92
2018-07-23T10:12:48.914Z,100300.44
2018-07-23T10:15:17.335Z,100297.38
2018-07-23T10:17:45.604Z,100293.45
2018-07-23T10:20:13.724Z,100295.98
2018-07-23T10:22:42.155Z,100289.00
2018-07-23T10:25:10.449Z,100288.95
2018-07-23T10:27:38.610Z,100282.17
2018-07-23T10:30:06.860Z,100282.99
2018-07-23T10:32:35.480Z,100283.70
2018-07-23T10:35:03.703Z,100273.14
2018-07-23T10:37:31.827Z,100274.55
2018-07-23T10:40:01.055Z,100281.53
2018-07-23T10:42:29.158Z,100276.13
2018-07-23T10:44:57.315Z,100286.12
2018-07-23T10:47:25.595Z,100280.56
2018-07-23T10:49:53.922Z,100281.36
2018-07-23T10:52:22.058Z,100281.23
2018-07-23T10:54:50.387Z,100277.56
2018-07-23T10:57:18.467Z,100273.75
2018-07-23T10:59:46.600Z,100278.84
2018-07-23T11:02:14.703Z,100272.80
2018-07-23T11:04:43.397Z,100276.48
2018-07-23T11:07:11.496Z,100280.54
2018-07-23T11:09:39.603Z,100274.70
2018-07-23T11:12:07.786Z,100272.31
2018-07-23T11:14:36.483Z,100272.20
2018-07-23T11:17:04.628Z,100270.23
2018-07-23T11:19:32.837Z,100269.59
2018-07-23T11:22:00.958Z,100273.59
2018-07-23T11:24:29.133Z,100272.66
2018-07-23T11:26:57.347Z,100267.23
2018-07-23T11:29:25.638Z,100272.97
2018-07-23T11:31:53.706Z,100260.59
2018-07-23T11:34:21.790Z,100256.00
2018-07-23T11:36:49.935Z,100255.34
2018-07-23T11:39:18.137Z,100256.84
2018-07-23T11:41:46.256Z,100258.27
2018-07-23T11:44:14.483Z,100249.02
2018-07-23T11:46:53.190Z,100243.82
2018-07-23T11:49:25.570Z,100250.88
2018-07-23T11:51:54.104Z,100245.52
2018-07-23T11:54:22.280Z,100248.94
2018-07-23T11:56:50.524Z,100245.98
2018-07-23T11:59:18.602Z,100241.98
2018-07-23T12:01:46.797Z,100241.77
2018-07-23T12:04:15.097Z,100236.53
2018-07-23T12:06:43.806Z,100240.63
2018-07-23T12:09:12.116Z,100239.41
2018-07-23T12:11:40.728Z,100235.14
2018-07-23T12:14:09.006Z,100225.52
2018-07-23T12:16:37.787Z,100224.06
2018-07-23T12:19:06.051Z,100222.61
2018-07-23T12:21:35.388Z,100220.77
2018-07-23T12:24:03.930Z,100213.69
2018-07-23T12:26:32.577Z,100207.92
2018-07-23T12:29:00.741Z,100209.97
2018-07-23T12:31:29.114Z,100204.12
2018-07-23T12:33:57.359Z,100204.19
2018-07-23T12:36:25.753Z,100203.80
2018-07-23T12:38:54.975Z,100205.84
2018-07-23T12:41:23.280Z,100206.31
2018-07-23T12:43:51.653Z,100200.27
2018-07-23T12:46:20.853Z,100194.94
2018-07-23T12:48:49.109Z,100188.36
2018-07-23T12:51:17.841Z,100192.77
2018-07-23T12:53:46.193Z,100188.88
2018-07-23T12:56:14.747Z,100190.60
2018-07-23T12:58:45.027Z,100191.07
2018-07-23T13:01:14.042Z,100183.63
2018-07-23T13:03:42.490Z,100180.81
2018-07-23T13:06:10.672Z,100185.06
2018-07-23T13:08:39.328Z,100180.73
2018-07-23T13:11:07.586Z,100172.94
2018-07-23T13:13:36.415Z,100174.89
2018-07-23T13:16:05.071Z,100175.28
2018-07-23T13:18:33.354Z,100178.68
2018-07-23T13:21:01.881Z,100180.11
2018-07-23T13:23:30.158Z,100177.67
2018-07-23T13:26:01.925Z,100181.52
2018-07-23T13:28:33.452Z,100178.05
2018-07-23T13:31:01.622Z,100176.22
2018-07-23T13:33:32.749Z,100165.27
2018-07-23T13:36:01.921Z,100164.31
2018-07-23T13:38:30.978Z,100173.70
2018-07-23T13:40:59.776Z,100170.92
2018-07-23T13:43:28.284Z,100171.04
2018-07-23T13:45:56.739Z,100164.48
2018-07-23T13:48:25.854Z,100152.46
2018-07-23T13:50:55.249Z,100152.08
2018-07-23T13:53:24.113Z,100154.28
2018-07-23T13:55:54.700Z,100152.33
2018-07-23T13:58:23.976Z,100145.60
2018-07-23T14:00:52.778Z,100148.91
2018-07-23T14:03:22.635Z,100143.05
2018-07-23T14:05:50.822Z,100137.73
2018-07-23T14:08:19.261Z,100137.59
2018-07-23T14:10:49.034Z,100135.34
2018-07-23T14:13:17.254Z,100134.09
2018-07-23T14:15:45.411Z,100130.31
2018-07-23T14:18:14.394Z,100139.45
2018-07-23T14:20:42.558Z,100134.70
2018-07-23T14:23:11.693Z,100132.53
2018-07-23T14:25:40.794Z,100127.69
2018-07-23T14:28:09.056Z,100130.80
2018-07-23T14:30:37.520Z,100125.13
2018-07-23T14:33:06.208Z,100129.23
2018-07-23T14:35:34.585Z,100122.81
2018-07-23T14:38:02.844Z,100119.68
2018-07-23T14:40:31.192Z,100121.52
2018-07-23T14:42:59.396Z,100123.21
2018-07-23T14:45:27.863Z,100121.52
2018-07-23T14:47:56.304Z,100111.94
2018-07-23T14:50:24.427Z,100122.33
2018-07-23T14:52:53.432Z,100113.88
2018-07-23T14:55:21.921Z,100106.70
2018-07-23T14:57:50.226Z,100104.34
2018-07-23T15:00:19.062Z,100105.08
2018-07-23T15:02:47.344Z,100103.69
2018-07-23T15:05:15.955Z,100106.80
2018-07-23T15:07:44.584Z,100112.77
2018-07-23T15:10:12.695Z,100103.90
2018-07-23T15:12:40.872Z,100107.09
2018-07-23T15:15:09.036Z,100098.55
2018-07-23T15:17:37.338Z,100102.78
2018-07-23T15:20:05.658Z,100102.48
2018-07-23T15:22:33.916Z,100107.23
2018-07-23T15:25:07.865Z,100098.30
2018-07-23T15:27:36.145Z,100094.50
2018-07-23T15:30:05.136Z,100101.77
2018-07-23T15:32:33.404Z,100089.59
2018-07-23T15:35:01.866Z,100084.70
2018-07-23T15:37:30.402Z,100095.83
2018-07-23T15:39:59.810Z,100096.94
2018-07-23T15:42:27.978Z,100094.20
2018-07-23T15:44:56.509Z,100092.41
2018-07-23T15:47:24.287Z,100091.77
2018-07-23T15:49:52.670Z,100095.88
2018-07-23T15:52:21.357Z,100083.00
2018-07-23T15:54:49.686Z,100082.09
2018-07-23T15:57:17.935Z,100085.76
2018-07-23T15:59:46.235Z,100092.84
2018-07-23T16:02:14.784Z,100086.55
2018-07-23T16:04:42.994Z,100090.78
2018-07-23T16:07:11.644Z,100090.59
2018-07-23T16:09:39.902Z,100086.02
2018-07-23T16:12:08.082Z,100081.41
2018-07-23T16:14:36.271Z,100076.50
2018-07-23T16:17:04.526Z,100079.55
2018-07-23T16:19:32.709Z,100084.00
2018-07-23T16:22:00.977Z,100079.78
2018-07-23T16:24:29.150Z,100079.76
2018-07-23T16:26:57.379Z,100077.05
2018-07-23T16:29:25.613Z,100071.27
2018-07-23T16:31:53.805Z,100076.66
2018-07-23T16:34:22.216Z,100076.30
2018-07-23T16:36:50.331Z,100078.81
2018-07-23T16:39:20.038Z,100073.70
2018-07-23T16:41:48.165Z,100080.27
2018-07-23T16:44:16.271Z,100067.96
2018-07-23T16:46:45.975Z,100069.28
2018-07-23T16:49:16.362Z,100070.45
2018-07-23T16:51:46.451Z,100066.28
2018-07-23T16:54:15.136Z,100067.58
2018-07-23T16:56:43.260Z,100067.08
2018-07-23T16:59:11.382Z,100075.94
2018-07-23T17:01:39.750Z,100073.78
2018-07-23T17:04:07.916Z,100071.30
2018-07-23T17:06:36.175Z,100077.48
2018-07-23T17:09:07.611Z,100079.80
2018-07-23T17:11:35.854Z,100078.38
2018-07-23T17:14:04.088Z,100080.13
2018-07-23T17:16:32.271Z,100077.48
2018-07-23T17:19:00.411Z,100080.09
2018-07-23T17:21:29.534Z,100085.49
2018-07-23T17:23:57.622Z,100080.77
2018-07-23T17:26:25.819Z,100082.62
2018-07-23T17:28:53.939Z,100088.86
2018-07-23T17:31:22.468Z,100085.67
2018-07-23T17:33:50.593Z,100088.63
2018-07-23T17:36:18.969Z,100086.38
2018-07-23T17:38:47.541Z,100089.41
2018-07-23T17:41:15.613Z,100088.14
2018-07-23T17:43:43.758Z,100087.11
2018-07-23T17:46:11.965Z,100093.84
2018-07-23T17:48:40.160Z,100084.88
2018-07-23T17:51:08.398Z,100084.55
2018-07-23T17:53:36.703Z,100084.25
2018-07-23T17:56:04.864Z,100089.45
2018-07-23T17:58:32.950Z,100087.78
2018-07-23T18:01:01.123Z,100084.39
2018-07-23T18:03:29.258Z,100082.44
2018-07-23T18:05:57.472Z,100084.78
2018-07-23T18:08:25.640Z,100084.30
2018-07-23T18:10:53.750Z,100093.00
2018-07-23T18:13:21.823Z,100090.26
2018-07-23T18:15:49.928Z,100091.73
2018-07-23T18:18:19.062Z,100091.20
2018-07-23T18:20:47.310Z,100092.30
2018-07-23T18:23:16.151Z,100093.20
2018-07-23T18:25:44.295Z,100089.61
2018-07-23T18:28:12.537Z,100092.19
2018-07-23T18:30:40.654Z,100093.27
2018-07-23T18:33:08.818Z,100096.52
2018-07-23T18:35:36.896Z,100100.32
2018-07-23T18:38:05.834Z,100105.97
2018-07-23T18:40:33.967Z,100100.55
2018-07-23T18:43:02.051Z,100107.44
2018-07-23T18:45:30.197Z,100107.78
2018-07-23T18:47:58.391Z,100112.27
2018-07-23T18:50:26.496Z,100108.91
2018-07-23T18:52:54.568Z,100112.98
2018-07-23T18:55:22.770Z,100121.16
2018-07-23T18:57:50.834Z,100125.73
2018-07-23T19:00:19.034Z,100123.48
2018-07-23T19:02:47.172Z,100129.41
2018-07-23T19:05:15.434Z,100131.27
2018-07-23T19:07:43.615Z,100121.78
2018-07-23T19:10:11.693Z,100128.61
2018-07-23T19:12:39.960Z,100128.85
2018-07-23T19:15:08.097Z,100131.02
2018-07-23T19:17:37.510Z,100131.31
2018-07-23T19:20:05.731Z,100134.83
2018-07-23T19:22:33.845Z,100125.21
2018-07-23T19:25:01.927Z,100137.72
2018-07-23T19:27:30.094Z,100135.98
2018-07-23T19:29:58.393Z,100134.47
2018-07-23T19:32:26.498Z,100142.45
2018-07-23T19:34:54.737Z,100139.05
2018-07-23T19:37:22.814Z,100144.59
2018-07-23T19:39:50.922Z,100151.19
2018-07-23T19:42:19.022Z,100149.34
2018-07-23T19:44:47.127Z,100152.64
2018-07-23T19:47:15.697Z,100151.64
2018-07-23T19:49:43.806Z,100153.75
2018-07-23T19:52:11.908Z,100155.02
2018-07-23T19:54:40.080Z,100157.47
2018-07-23T19:57:08.302Z,100156.70
2018-07-23T19:59:36.431Z,100162.88
2018-07-23T20:04:38.970Z,100170.75
2018-07-23T20:07:07.083Z,100164.23
2018-07-23T20:09:35.297Z,100163.19
2018-07-23T20:12:03.585Z,100163.30
2018-07-23T20:14:31.771Z,100167.32
2018-07-23T20:17:00.786Z,100161.92
2018-07-23T20:19:28.966Z,100166.28
2018-07-23T20:21:57.061Z,100164.97
2018-07-23T20:24:25.401Z,100173.89
2018-07-23T20:26:53.633Z,100167.20
2018-07-23T20:29:21.821Z,100168.20
2018-07-23T20:31:50.254Z,100164.76
2018-07-23T20:34:22.616Z,100168.59
2018-07-23T20:36:51.766Z,100170.22
2018-07-23T20:39:19.900Z,100176.37
2018-07-23T20:41:48.113Z,100168.88
2018-07-23T20:44:16.220Z,100168.70
2018-07-23T20:46:44.731Z,100167.08
2018-07-23T20:49:12.870Z,100163.36
2018-07-23T20:51:41.079Z,100167.45
2018-07-23T20:54:09.232Z,100165.67
2018-07-23T20:56:37.405Z,100175.56
2018-07-23T20:59:07.235Z,100175.76
2018-07-23T21:01:35.622Z,100174.35
2018-07-23T21:04:03.769Z,100176.83
2018-07-23T21:06:31.935Z,100174.64
2018-07-23T21:09:00.059Z,100167.70
2018-07-23T21:11:28.204Z,100169.66
2018-07-23T21:13:56.414Z,100161.64
2018-07-23T21:16:24.582Z,100171.80
2018-07-23T21:18:52.667Z,100169.91
2018-07-23T21:21:21.004Z,100167.65
2018-07-23T21:23:49.126Z,100175.41
2018-07-23T21:26:17.345Z,100171.11
2018-07-23T21:28:46.014Z,100174.92
2018-07-23T21:31:14.344Z,100171.70
2018-07-23T21:33:42.438Z,100173.16
2018-07-23T21:36:10.556Z,100170.52
2018-07-23T21:38:38.659Z,100177.94
2018-07-23T21:41:06.950Z,100172.00
2018-07-23T21:43:35.048Z,100176.05
2018-07-23T21:46:03.163Z,100177.09
2018-07-23T21:48:31.313Z,100171.81
2018-07-23T21:50:59.369Z,100174.05
2018-07-23T21:53:27.495Z,100171.17
2018-07-23T21:55:55.675Z,100177.66
2018-07-23T21:58:23.951Z,100171.91
2018-07-23T22:00:52.052Z,100165.91
2018-07-23T22:03:20.132Z,100168.34
2018-07-23T22:05:48.299Z,100166.61
2018-07-23T22:08:16.527Z,100171.41
2018-07-23T22:10:44.788Z,100166.64
2018-07-23T22:13:12.879Z,100169.37
2018-07-23T22:15:40.943Z,100173.82
2018-07-23T22:18:09.022Z,100172.81
2018-07-23T22:20:37.178Z,100171.96
2018-07-23T22:23:05.665Z,100173.64
2018-07-23T22:25:33.994Z,100172.30
2018-07-23T22:28:02.276Z,100173.88
2018-07-23T22:30:30.399Z,100178.48
2018-07-23T22:32:58.567Z,100173.41
2018-07-23T22:35:26.778Z,100168.30
2018-07-23T22:37:54.935Z,100173.11
2018-07-23T22:40:23.250Z,100181.84
2018-07-23T22:42:51.382Z,100175.87
2018-07-23T22:45:19.634Z,100171.36
2018-07-23T22:47:47.795Z,100171.33
2018-07-23T22:50:16.817Z,100178.45
2018-07-23T22:52:45.039Z,100174.30
2018-07-23T22:55:13.243Z,100174.00
2018-07-23T22:57:41.423Z,100176.95
2018-07-23T23:00:09.534Z,100179.70
2018-07-23T23:02:38.236Z,100177.03
2018-07-23T23:05:06.363Z,100172.91
2018-07-23T23:07:34.540Z,100173.48
2018-07-23T23:10:02.680Z,100174.89
2018-07-23T23:12:30.842Z,100172.30
2018-07-23T23:14:59.043Z,100172.66
2018-07-23T23:17:27.308Z,100173.69
2018-07-23T23:19:55.472Z,100180.00
2018-07-23T23:22:23.603Z,100170.94
2018-07-23T23:24:51.712Z,100180.61
2018-07-23T23:27:19.890Z,100176.63
2018-07-23T23:29:48.084Z,100170.86
2018-07-23T23:32:16.463Z,100167.17
2018-07-23T23:34:44.599Z,100176.67
2018-07-23T23:37:12.738Z,100169.31
2018-07-23T23:39:40.895Z,100168.73
2018-07-23T23:42:08.978Z,100167.90
2018-07-23T23:44:37.636Z,100166.90
2018-07-23T23:47:06.129Z,100166.28
2018-07-23T23:49:34.516Z,100167.19
2018-07-23T23:52:02.910Z,100165.05
2018-07-23T23:54:31.161Z,100160.95
2018-07-23T23:56:59.246Z,100168.91
2018-07-23T23:59:27.847Z,100166.19
